Time;durP1;ratioP1;P1;durP2;ratioP2;P2;SDS_P1;SDS_P2;PMS_P1;PMS_P2;Temp;Humidity;BMP_temperature;BMP_pressure;BME280_temperature;BME280_humidity;BME280_pressure;Samples;Min_cycle;Max_cycle;Signal;HPM_P1;HPM_P2
2023/04/28 00:01:04;;;;;;;12.50;7.35;;;;;;;4.61;100.00;101670.38;10398519;28;20045;-72
2023/04/28 00:06:04;;;;;;;11.95;6.38;;;;;;;4.64;100.00;101653.59;10414561;28;20126;-72
2023/04/28 00:11:09;;;;;;;10.23;5.90;;;;;;;4.70;100.00;101659.34;10380689;28;20038;-72
2023/04/28 00:16:10;;;;;;;11.95;6.43;;;;;;;4.52;100.00;101627.91;10381629;28;20035;-72
2023/04/28 00:21:10;;;;;;;11.32;6.53;;;;;;;4.53;100.00;101629.59;10381709;28;20030;-72
2023/04/28 00:26:11;;;;;;;12.80;7.32;;;;;;;4.57;100.00;101641.81;10381559;28;20033;-72
2023/04/28 00:31:12;;;;;;;10.35;7.35;;;;;;;4.47;100.00;101618.66;10396742;28;20080;-72
2023/04/28 00:36:13;;;;;;;10.63;6.55;;;;;;;4.42;100.00;101613.75;10381787;28;20049;-72
2023/04/28 00:41:14;;;;;;;11.38;7.63;;;;;;;4.34;100.00;101592.06;10414210;28;20049;-73
2023/04/28 00:46:28;;;;;;;11.45;6.90;;;;;;;4.31;100.00;101592.47;10412648;28;20045;-72
2023/04/28 00:51:29;;;;;;;11.85;6.95;;;;;;;4.37;100.00;101598.00;10413401;28;20124;-72
2023/04/28 00:56:30;;;;;;;13.57;6.68;;;;;;;4.40;100.00;101596.75;10379956;28;20033;-72
2023/04/28 01:01:30;;;;;;;13.80;7.90;;;;;;;4.41;100.00;101582.09;10396259;28;20124;-72
2023/04/28 01:06:31;;;;;;;11.48;7.05;;;;;;;4.36;100.00;101569.06;10349942;28;20037;-72
2023/04/28 01:11:31;;;;;;;11.88;8.45;;;;;;;4.41;100.00;101560.28;10394691;28;20508;-72
2023/04/28 01:16:32;;;;;;;15.15;6.75;;;;;;;4.40;100.00;101548.53;10396159;28;20534;-72
2023/04/28 01:21:33;;;;;;;10.95;7.28;;;;;;;4.49;100.00;101560.13;10379570;28;20030;-72
2023/04/28 01:26:33;;;;;;;11.45;7.60;;;;;;;4.50;100.00;101561.81;10363300;28;20121;-69
2023/04/28 01:31:34;;;;;;;12.43;8.18;;;;;;;4.44;100.00;101543.50;10397046;28;20100;-73
2023/04/28 01:36:34;;;;;;;15.88;8.82;;;;;;;4.45;100.00;101535.16;10395536;28;20053;-72
2023/04/28 01:41:35;;;;;;;19.15;9.93;;;;;;;4.37;100.00;101501.72;10411238;28;20033;-73
2023/04/28 01:46:35;;;;;;;17.65;9.07;;;;;;;4.52;100.00;101527.00;10411390;28;20029;-72
2023/04/28 01:51:36;;;;;;;17.98;10.68;;;;;;;4.51;100.00;101519.88;10394467;28;20033;-72
2023/04/28 01:56:36;;;;;;;16.63;9.68;;;;;;;4.54;100.00;101510.47;10410669;28;20040;-72
2023/04/28 02:01:37;;;;;;;17.67;10.45;;;;;;;4.48;100.00;101484.81;10378788;28;20037;-72
2023/04/28 02:06:37;;;;;;;17.45;10.10;;;;;;;4.62;100.00;101508.41;10411479;28;20041;-72
2023/04/28 02:11:38;;;;;;;21.80;11.43;;;;;;;4.59;100.00;101497.09;10394013;28;20030;-72
2023/04/28 02:16:38;;;;;;;18.58;10.82;;;;;;;4.59;100.00;101491.63;10393395;28;20513;-72
2023/04/28 02:21:39;;;;;;;19.15;10.98;;;;;;;4.57;100.00;101480.91;10393174;28;20611;-72
2023/04/28 02:26:40;;;;;;;19.98;12.68;;;;;;;4.52;100.00;101458.00;10377004;28;20037;-72
2023/04/28 02:31:40;;;;;;;22.27;12.35;;;;;;;4.54;100.00;101453.19;10394573;28;20057;-72
2023/04/28 02:36:41;;;;;;;23.08;13.65;;;;;;;4.54;100.00;101436.84;10409807;28;20026;-73
2023/04/28 02:41:41;;;;;;;24.67;13.80;;;;;;;4.53;100.00;101432.44;10409859;28;20107;-73
2023/04/28 02:46:42;;;;;;;26.77;13.93;;;;;;;4.33;100.00;101394.13;10408431;28;20037;-72
2023/04/28 02:51:42;;;;;;;25.17;15.45;;;;;;;4.39;100.00;101398.78;10392462;28;20033;-72
2023/04/28 02:56:42;;;;;;;24.88;14.52;;;;;;;4.37;100.00;101395.41;10383657;28;20029;-71
2023/04/28 03:01:43;;;;;;;29.10;14.50;;;;;;;4.31;100.00;101374.41;10419794;28;20037;-72
2023/04/28 03:06:43;;;;;;;28.38;13.35;;;;;;;4.18;100.00;101359.66;10368602;28;20049;-72
2023/04/28 03:11:44;;;;;;;22.42;13.48;;;;;;;4.35;100.00;101384.72;10400441;28;20038;-72
2023/04/28 03:16:45;;;;;;;22.30;12.40;;;;;;;4.36;100.00;101382.81;10418152;28;20025;-72
2023/04/28 03:21:46;;;;;;;22.95;13.43;;;;;;;4.36;100.00;101382.81;10417665;28;20044;-72
2023/04/28 03:26:47;;;;;;;29.38;14.77;;;;;;;4.34;100.00;101363.09;10417558;28;20060;-72
2023/04/28 03:31:47;;;;;;;24.77;13.88;;;;;;;4.35;100.00;101353.88;10400151;28;20029;-72
2023/04/28 03:36:47;;;;;;;23.70;13.52;;;;;;;4.23;100.00;101335.34;10398522;28;20043;-72
2023/04/28 03:41:48;;;;;;;27.30;15.63;;;;;;;4.24;100.00;101339.78;10399110;28;20037;-72
2023/04/28 03:46:49;;;;;;;27.02;15.32;;;;;;;4.28;100.00;101356.59;10399500;28;20052;-72
2023/04/28 03:51:50;;;;;;;24.73;14.15;;;;;;;4.14;100.00;101320.22;10398501;28;20110;-72
2023/04/28 03:56:50;;;;;;;22.70;13.43;;;;;;;4.18;100.00;101324.22;10383256;28;20068;-73
2023/04/28 04:01:51;;;;;;;26.60;12.80;;;;;;;4.14;100.00;101303.03;10399570;28;20057;-70
2023/04/28 04:06:51;;;;;;;23.80;12.25;;;;;;;4.12;100.00;101299.69;10381018;28;20098;-73
2023/04/28 04:11:52;;;;;;;24.25;13.35;;;;;;;4.07;100.00;101313.03;10413336;28;20520;-72
2023/04/28 04:16:54;;;;;;;23.52;13.25;;;;;;;4.12;100.00;101319.59;10381994;28;20029;-72
2023/04/28 04:21:54;;;;;;;21.10;13.30;;;;;;;4.11;100.00;101304.25;10387736;28;20132;-73
2023/04/28 04:26:55;;;;;;;23.60;13.70;;;;;;;4.17;100.00;101303.47;10398956;28;20489;-73
2023/04/28 04:31:55;;;;;;;19.60;11.40;;;;;;;4.24;100.00;101314.41;10398970;28;20477;-72
2023/04/28 04:36:56;;;;;;;23.02;13.23;;;;;;;4.36;100.00;101314.66;10413352;28;20037;-72
2023/04/28 04:41:56;;;;;;;22.80;12.90;;;;;;;4.38;100.00;101298.94;10379724;28;20605;-72
2023/04/28 04:46:57;;;;;;;22.13;12.40;;;;;;;4.45;100.00;101294.38;10396810;28;20030;-72
2023/04/28 04:51:58;;;;;;;21.83;13.43;;;;;;;4.54;100.00;101281.41;10412963;28;20096;-73
2023/04/28 04:56:58;;;;;;;20.38;11.77;;;;;;;4.45;100.00;101250.75;10397271;28;20041;-71
2023/04/28 05:01:59;;;;;;;20.98;11.85;;;;;;;4.71;100.00;101281.88;10364413;28;20061;-73
2023/04/28 05:06:59;;;;;;;19.25;11.52;;;;;;;4.70;100.00;101277.47;10394669;28;20037;-72
2023/04/28 05:12:00;;;;;;;19.55;11.23;;;;;;;4.71;100.00;101276.41;10396440;28;20490;-73
2023/04/28 05:17:00;;;;;;;20.40;10.80;;;;;;;4.88;100.00;101266.81;10379246;28;20033;-73
2023/04/28 05:22:01;;;;;;;17.63;12.30;;;;;;;4.94;100.00;101260.53;10395061;28;20334;-73
2023/04/28 05:27:02;;;;;;;18.30;11.07;;;;;;;4.92;100.00;101250.84;10396551;28;20574;-73
2023/04/28 05:32:02;;;;;;;22.88;12.68;;;;;;;4.98;100.00;101245.44;10395470;28;20033;-73
2023/04/28 05:37:02;;;;;;;18.50;10.82;;;;;;;4.68;100.00;101181.38;10369423;28;20034;-72
2023/04/28 05:42:03;;;;;;;19.67;10.43;;;;;;;5.18;100.00;101239.13;10354169;28;20129;-73
2023/04/28 05:47:04;;;;;;;22.73;11.63;;;;;;;5.21;100.00;101220.44;10338305;28;20049;-71
2023/04/28 05:52:04;;;;;;;18.75;10.70;;;;;;;5.23;100.00;101220.25;10321858;28;20045;-73
2023/04/28 05:57:05;;;;;;;17.25;11.10;;;;;;;5.44;100.00;101228.19;10364031;28;20096;-72
2023/04/28 06:02:05;;;;;;;15.50;10.45;;;;;;;5.56;100.00;101222.06;10412114;28;20037;-73
2023/04/28 06:07:07;;;;;;;15.52;10.23;;;;;;;5.84;100.00;101222.66;10378096;28;20053;-72
2023/04/28 06:12:07;;;;;;;15.38;9.90;;;;;;;6.03;100.00;101217.38;10362098;28;20037;-72
2023/04/28 06:17:08;;;;;;;21.40;10.82;;;;;;;6.24;100.00;101221.69;10370389;28;20069;-73
2023/04/28 06:22:08;;;;;;;16.13;10.23;;;;;;;6.38;100.00;101217.00;10370404;28;20076;-72
2023/04/28 06:27:09;;;;;;;14.60;9.45;;;;;;;6.52;100.00;101213.16;10354080;28;20042;-72
2023/04/28 06:32:10;;;;;;;18.08;8.93;;;;;;;6.62;100.00;101210.78;10367746;28;20172;-72
2023/04/28 06:37:10;;;;;;;18.58;9.95;;;;;;;6.72;100.00;101212.19;10410575;28;20044;-72
2023/04/28 06:42:10;;;;;;;17.00;9.55;;;;;;;6.94;100.00;101210.75;10393535;28;20044;-72
2023/04/28 06:47:11;;;;;;;18.40;9.00;;;;;;;7.16;100.00;101218.63;10392517;28;20601;-72
2023/04/28 06:52:13;;;;;;;14.82;9.77;;;;;;;7.18;100.00;101200.06;10376798;28;20037;-73
2023/04/28 06:57:13;;;;;;;15.32;8.45;;;;;;;7.31;100.00;101191.72;10378653;28;20091;-72
2023/04/28 07:02:14;;;;;;;15.90;9.30;;;;;;;7.45;100.00;101189.69;10368366;28;20103;-72
2023/04/28 07:07:16;;;;;;;15.52;9.40;;;;;;;7.62;100.00;101192.69;10391681;28;20033;-73
2023/04/28 07:12:17;;;;;;;16.15;9.55;;;;;;;7.71;100.00;101166.66;10408874;28;20033;-73
2023/04/28 07:17:17;;;;;;;15.80;8.98;;;;;;;7.83;100.00;101164.84;10373964;28;20033;-72
2023/04/28 07:22:18;;;;;;;16.92;8.85;;;;;;;7.89;100.00;101154.84;10391160;28;20037;-72
2023/04/28 07:27:18;;;;;;;14.32;9.30;;;;;;;7.81;100.00;101152.41;10410166;28;20038;-72
2023/04/28 07:32:19;;;;;;;15.77;8.13;;;;;;;7.85;100.00;101170.94;10391608;28;20056;-72
2023/04/28 07:37:19;;;;;;;15.55;8.93;;;;;;;7.98;100.00;101166.31;10406172;28;20076;-70
2023/04/28 07:42:20;;;;;;;18.55;8.65;;;;;;;8.00;100.00;101154.09;10396933;28;21023;-73
2023/04/28 07:47:21;;;;;;;13.18;8.73;;;;;;;8.05;100.00;101139.69;10414726;28;20064;-73
2023/04/28 07:52:22;;;;;;;15.10;8.75;;;;;;;8.21;100.00;101151.91;10416026;28;20393;-72
2023/04/28 07:57:22;;;;;;;15.02;8.20;;;;;;;8.50;100.00;101147.53;10416910;28;20073;-73
2023/04/28 08:02:23;;;;;;;10.60;7.32;;;;;;;8.50;100.00;101133.81;10413894;28;20042;-72
2023/04/28 08:07:23;;;;;;;12.60;8.23;;;;;;;8.52;100.00;101139.91;10396397;28;20063;-73
2023/04/28 08:12:24;;;;;;;14.75;8.07;;;;;;;8.59;100.00;101135.13;10380797;28;20048;-73
2023/04/28 08:17:24;;;;;;;15.65;7.65;;;;;;;8.71;100.00;101128.84;10395010;28;20045;-73
2023/04/28 08:22:25;;;;;;;13.20;7.78;;;;;;;8.88;100.00;101127.06;10366912;28;20049;-72
2023/04/28 08:27:25;;;;;;;14.50;7.72;;;;;;;8.71;100.00;101055.56;10415467;28;20556;-73
2023/04/28 08:32:26;;;;;;;15.35;8.95;;;;;;;9.43;100.00;101112.97;10382009;28;20061;-73
2023/04/28 08:37:27;;;;;;;13.88;7.50;;;;;;;9.79;100.00;101113.72;10396512;28;20056;-73
2023/04/28 08:42:29;;;;;;;12.65;8.25;;;;;;;9.87;100.00;101107.03;10400503;28;20533;-73
2023/04/28 08:47:37;;;;;;;13.93;7.25;;;;;;;10.18;100.00;101108.47;10395984;28;20034;-71
2023/04/28 08:52:38;;;;;;;12.80;7.53;;;;;;;10.46;100.00;101095.81;10413099;28;20025;-71
2023/04/28 08:57:44;;;;;;;12.57;7.30;;;;;;;10.51;100.00;101079.38;10379707;28;20071;-71
2023/04/28 09:02:44;;;;;;;14.57;7.93;;;;;;;10.62;100.00;101092.22;10351419;28;20042;-72
2023/04/28 09:07:45;;;;;;;11.93;6.95;;;;;;;10.52;100.00;101085.69;10370859;28;20049;-72
2023/04/28 09:12:47;;;;;;;12.77;7.50;;;;;;;10.49;100.00;101103.56;10386403;28;20037;-73
2023/04/28 09:17:51;;;;;;;15.38;8.32;;;;;;;10.29;100.00;101093.84;10377846;28;20041;-72
2023/04/28 09:22:52;;;;;;;12.02;7.88;;;;;;;10.20;100.00;101078.78;10379248;28;20056;-72
2023/04/28 09:27:53;;;;;;;14.98;8.27;;;;;;;10.34;100.00;101084.84;10363585;28;20038;-72
2023/04/28 09:33:03;;;;;;;11.45;7.70;;;;;;;10.32;100.00;101091.69;10379401;28;20030;-72
2023/04/28 09:38:04;;;;;;;15.27;8.63;;;;;;;10.28;100.00;101097.66;10395143;28;20113;-73
2023/04/28 09:43:04;;;;;;;11.68;7.97;;;;;;;10.43;100.00;101099.88;10394563;28;20045;-72
2023/04/28 09:48:09;;;;;;;12.77;8.43;;;;;;;10.57;100.00;101083.88;10378309;28;20033;-73
2023/04/28 09:53:10;;;;;;;14.30;8.70;;;;;;;11.18;100.00;101088.69;10413202;28;20029;-72
2023/04/28 09:58:10;;;;;;;12.57;8.20;;;;;;;11.60;100.00;101060.59;10361652;28;20042;-73
2023/04/28 10:03:11;;;;;;;9.82;7.18;;;;;;;12.05;100.00;101053.94;10375991;28;20037;-73
2023/04/28 10:08:12;;;;;;;12.48;7.95;;;;;;;12.78;100.00;101028.66;10376834;28;20033;-72
2023/04/28 10:13:12;;;;;;;11.88;7.65;;;;;;;13.39;100.00;101012.44;10393348;28;20048;-74
2023/04/28 10:18:15;;;;;;;11.25;7.03;;;;;;;13.41;100.00;100999.19;10377108;28;20061;-72
2023/04/28 10:23:28;;;;;;;18.23;8.13;;;;;;;13.39;100.00;100978.44;10395333;28;20035;-73
2023/04/28 10:28:29;;;;;;;14.02;7.15;;;;;;;14.10;100.00;100999.94;10394066;28;20057;-73
2023/04/28 10:33:30;;;;;;;13.52;7.38;;;;;;;14.22;100.00;100967.28;10410029;28;20033;-73
2023/04/28 10:38:30;;;;;;;15.38;7.30;;;;;;;14.67;100.00;100973.06;10392247;28;20045;-73
2023/04/28 10:43:38;;;;;;;11.43;8.13;;;;;;;14.56;100.00;100975.03;10408000;28;20068;-72
2023/04/28 10:48:50;;;;;;;12.20;6.80;;;;;;;14.42;100.00;100980.28;10393300;28;20089;-73
2023/04/28 10:53:51;;;;;;;11.63;8.27;;;;;;;14.10;100.00;100978.63;10410778;28;20050;-73
2023/04/28 10:58:57;;;;;;;9.82;7.70;;;;;;;13.86;100.00;100971.94;10410783;28;20053;-73
2023/04/28 11:03:59;;;;;;;14.13;8.38;;;;;;;13.72;100.00;100982.69;10393032;28;20045;-73
2023/04/28 11:08:59;;;;;;;10.93;7.35;;;;;;;13.45;100.00;100978.19;10408159;28;20436;-73
2023/04/28 11:14:18;;;;;;;12.05;7.30;;;;;;;13.35;100.00;100983.66;10411051;28;20038;-73
2023/04/28 11:19:25;;;;;;;11.73;8.15;;;;;;;13.47;100.00;100981.50;10419355;28;20063;-73
2023/04/28 11:24:27;;;;;;;12.13;7.80;;;;;;;13.50;100.00;100972.69;10418338;28;20056;-72
2023/04/28 11:29:38;;;;;;;13.73;8.40;;;;;;;13.21;100.00;100954.81;10417071;28;20571;-72
2023/04/28 11:34:38;;;;;;;13.02;8.55;;;;;;;12.81;100.00;100956.28;10399552;28;20037;-73
2023/04/28 11:39:40;;;;;;;13.90;8.95;;;;;;;12.57;100.00;100981.56;10416235;28;20034;-73
2023/04/28 11:44:40;;;;;;;16.98;9.68;;;;;;;12.44;100.00;100971.81;10383109;28;20046;-72
2023/04/28 11:49:42;;;;;;;14.18;9.75;;;;;;;12.80;100.00;100977.56;10416976;28;20076;-73
2023/04/28 11:54:43;;;;;;;18.65;11.07;;;;;;;13.12;100.00;100974.72;10398790;28;20120;-73
2023/04/28 11:59:44;;;;;;;16.67;10.52;;;;;;;13.19;100.00;100957.88;10415887;28;20053;-73
2023/04/28 12:04:45;;;;;;;12.30;10.30;;;;;;;13.33;100.00;100974.81;10397017;28;20097;-73
2023/04/28 12:10:05;;;;;;;16.77;9.77;;;;;;;13.36;100.00;100963.22;10415065;28;20528;-72
2023/04/28 12:15:07;;;;;;;13.73;8.90;;;;;;;13.24;100.00;100960.66;10380866;28;20046;-73
2023/04/28 12:20:11;;;;;;;15.27;9.35;;;;;;;13.12;100.00;100944.31;10381286;28;20045;-74
2023/04/28 12:25:15;;;;;;;13.43;8.82;;;;;;;13.30;100.00;100956.00;10381601;28;20037;-73
2023/04/28 12:30:19;;;;;;;16.95;8.95;;;;;;;13.22;100.00;100942.69;10397156;28;20045;-73
2023/04/28 12:35:26;;;;;;;17.55;10.73;;;;;;;13.20;100.00;100922.75;10396667;28;20056;-72
2023/04/28 12:40:27;;;;;;;13.88;9.48;;;;;;;13.25;100.00;100928.28;10379903;28;20037;-73
2023/04/28 12:45:29;;;;;;;16.98;9.02;;;;;;;13.12;100.00;100941.53;10378544;28;20030;-71
2023/04/28 12:50:31;;;;;;;12.65;9.32;;;;;;;12.88;100.00;100937.56;10396638;28;20412;-72
2023/04/28 12:55:32;;;;;;;15.45;9.68;;;;;;;12.76;100.00;100939.69;10396865;28;20030;-73
2023/04/28 13:00:32;;;;;;;14.77;9.88;;;;;;;12.84;100.00;100928.13;10379476;28;20033;-72
2023/04/28 13:05:34;;;;;;;14.35;10.88;;;;;;;13.20;100.00;100925.53;10379355;28;20060;-73
2023/04/28 13:10:34;;;;;;;14.50;9.63;;;;;;;13.45;100.00;100900.75;10395191;28;20093;-73
2023/04/28 13:15:35;;;;;;;13.05;9.80;;;;;;;13.62;100.00;100917.13;10412646;28;20034;-74
2023/04/28 13:20:36;;;;;;;13.57;9.60;;;;;;;13.24;100.00;100910.06;10364120;28;20053;-73
2023/04/28 13:25:36;;;;;;;12.60;9.93;;;;;;;13.11;100.00;100912.22;10412749;28;20362;-74
2023/04/28 13:30:37;;;;;;;13.90;9.52;;;;;;;13.14;100.00;100910.84;10411705;28;20520;-73
2023/04/28 13:35:37;;;;;;;20.45;10.55;;;;;;;13.14;100.00;100899.78;10413476;28;20037;-70
2023/04/28 13:40:38;;;;;;;14.98;10.25;;;;;;;13.15;100.00;100906.13;10378297;28;20057;-74
2023/04/28 13:45:38;;;;;;;12.77;10.20;;;;;;;13.18;100.00;100892.63;10378079;28;20122;-73
2023/04/28 13:50:39;;;;;;;14.55;10.18;;;;;;;13.48;100.00;100883.63;10394645;28;20101;-72
2023/04/28 13:55:39;;;;;;;14.18;10.15;;;;;;;13.76;100.00;100889.72;10378281;28;20037;-73
2023/04/28 14:00:40;;;;;;;14.98;11.00;;;;;;;13.57;100.00;100881.13;10393491;28;20045;-72
2023/04/28 14:05:41;;;;;;;13.60;10.80;;;;;;;13.34;100.00;100885.25;10412405;28;20037;-71
2023/04/28 14:10:41;;;;;;;15.85;12.05;;;;;;;13.08;100.00;100901.72;10393101;28;20257;-71
2023/04/28 14:15:42;;;;;;;17.60;12.50;;;;;;;12.93;100.00;100887.81;10392077;28;20517;-72
2023/04/28 14:20:42;;;;;;;16.67;12.68;;;;;;;12.82;100.00;100886.97;10360441;28;20037;-72
2023/04/28 14:25:43;;;;;;;20.95;15.05;;;;;;;12.76;100.00;100895.50;10410080;28;20045;-72
2023/04/28 14:30:43;;;;;;;28.70;18.25;;;;;;;12.72;100.00;100897.97;10377214;28;20061;-72
2023/04/28 14:35:44;;;;;;;21.48;18.00;;;;;;;12.65;100.00;100887.16;10393479;28;20505;-72
2023/04/28 14:40:44;;;;;;;21.92;18.05;;;;;;;12.72;100.00;100892.44;10391980;28;20041;-71
2023/04/28 14:45:45;;;;;;;27.02;18.80;;;;;;;12.69;100.00;100892.94;10375506;28;20052;-70
2023/04/28 14:50:46;;;;;;;27.83;20.23;;;;;;;12.66;100.00;100901.78;10413322;28;20475;-70
2023/04/28 14:55:47;;;;;;;24.23;20.45;;;;;;;12.63;100.00;100878.31;10367963;28;20034;-70
2023/04/28 15:00:47;;;;;;;29.85;20.88;;;;;;;12.59;100.00;100882.69;10400014;28;20041;-71
2023/04/28 15:05:48;;;;;;;30.27;21.38;;;;;;;12.48;100.00;100881.78;10400416;28;20041;-70
2023/04/28 15:10:48;;;;;;;30.42;22.20;;;;;;;12.27;100.00;100855.16;10399541;28;20041;-71
2023/04/28 15:15:50;;;;;;;29.42;23.25;;;;;;;12.28;100.00;100859.59;10394785;28;20049;-69
2023/04/28 15:20:50;;;;;;;28.77;22.02;;;;;;;12.33;100.00;100878.94;10379297;28;20428;-72
2023/04/28 15:25:52;;;;;;;36.97;25.92;;;;;;;12.24;100.00;100870.34;10399017;28;20057;-72
2023/04/28 15:30:53;;;;;;;34.78;24.58;;;;;;;12.05;100.00;100855.28;10400385;28;20124;-72
2023/04/28 15:35:54;;;;;;;35.42;26.55;;;;;;;12.06;100.00;100865.22;10367509;28;20041;-72
2023/04/28 15:40:54;;;;;;;38.83;27.58;;;;;;;11.99;100.00;100859.09;10380893;28;20037;-73
2023/04/28 15:45:55;;;;;;;44.05;28.35;;;;;;;11.88;100.00;100856.25;10416197;28;20037;-72
2023/04/28 15:50:55;;;;;;;41.53;26.80;;;;;;;11.75;100.00;100867.69;10350467;28;20036;-72
2023/04/28 15:55:59;;;;;;;44.53;28.13;;;;;;;11.57;100.00;100868.09;10414654;28;20040;-72
2023/04/28 16:00:59;;;;;;;36.00;28.27;;;;;;;11.45;100.00;100858.06;10381154;28;20042;-73
2023/04/28 16:06:00;;;;;;;44.08;29.88;;;;;;;11.51;100.00;100856.16;10395708;28;20109;-73
2023/04/28 16:11:01;;;;;;;42.53;29.33;;;;;;;11.38;100.00;100867.63;10381064;28;20080;-74
2023/04/28 16:16:02;;;;;;;46.70;30.13;;;;;;;11.26;100.00;100865.00;10358136;28;20101;-75
2023/04/28 16:21:03;;;;;;;43.35;30.20;;;;;;;11.19;100.00;100869.91;10364424;28;20160;-75
2023/04/28 16:26:03;;;;;;;41.70;30.27;;;;;;;11.14;100.00;100873.44;10348229;28;20117;-73
2023/04/28 16:31:04;;;;;;;37.97;27.35;;;;;;;11.01;100.00;100869.16;10381105;28;20397;-75
2023/04/28 16:36:05;;;;;;;39.90;26.92;;;;;;;10.93;100.00;100868.78;10362291;28;20072;-75
2023/04/28 16:41:05;;;;;;;36.20;26.30;;;;;;;10.80;100.00;100850.72;10381011;28;20045;-75
2023/04/28 16:46:06;;;;;;;37.88;26.58;;;;;;;10.87;100.00;100856.84;10364745;28;20048;-75
2023/04/28 16:51:10;;;;;;;43.20;27.48;;;;;;;10.73;100.00;100844.56;10366033;28;20033;-75
2023/04/28 16:56:10;;;;;;;36.83;26.13;;;;;;;10.67;100.00;100841.75;10362959;28;20036;-75
2023/04/28 17:01:11;;;;;;;39.25;27.15;;;;;;;10.60;100.00;100829.25;10363471;28;20355;-75
2023/04/28 17:06:12;;;;;;;39.95;27.50;;;;;;;10.72;100.00;100854.75;10379026;28;20037;-75
2023/04/28 17:11:14;;;;;;;43.70;27.92;;;;;;;10.62;100.00;100849.94;10361200;28;20041;-75
2023/04/28 17:16:15;;;;;;;42.30;28.20;;;;;;;10.56;100.00;100856.44;10359400;28;20041;-75
2023/04/28 17:21:16;;;;;;;38.83;27.45;;;;;;;10.46;100.00;100853.59;10393410;28;20274;-75
2023/04/28 17:26:17;;;;;;;43.13;29.45;;;;;;;10.46;100.00;100861.84;10361845;28;20033;-75
2023/04/28 17:31:18;;;;;;;44.58;30.10;;;;;;;10.47;100.00;100869.00;10394491;28;20037;-76
2023/04/28 17:36:19;;;;;;;40.38;28.50;;;;;;;10.35;100.00;100854.50;10361949;28;20030;-76
2023/04/28 17:41:20;;;;;;;47.92;30.38;;;;;;;10.38;100.00;100865.03;10345195;28;20041;-71
2023/04/28 17:46:20;;;;;;;44.97;30.17;;;;;;;10.47;100.00;100875.34;10345218;28;20064;-75
2023/04/28 17:51:21;;;;;;;46.90;31.80;;;;;;;10.50;100.00;100874.84;10382660;28;20119;-74
2023/04/28 17:56:21;;;;;;;42.80;30.58;;;;;;;10.43;100.00;100874.19;10393651;28;20098;-75
2023/04/28 18:01:22;;;;;;;48.92;32.65;;;;;;;10.12;100.00;100819.75;10359601;28;20033;-75
2023/04/28 18:06:22;;;;;;;49.00;33.13;;;;;;;10.47;100.00;100880.00;10392227;28;20096;-75
2023/04/28 18:11:23;;;;;;;50.28;32.00;;;;;;;10.20;100.00;100836.66;10374074;28;20546;-75
2023/04/28 18:16:24;;;;;;;47.90;32.88;;;;;;;10.51;100.00;100886.69;10390289;28;20128;-76
2023/04/28 18:21:25;;;;;;;47.70;32.80;;;;;;;10.54;100.00;100897.16;10357694;28;20049;-76
2023/04/28 18:26:25;;;;;;;52.85;35.22;;;;;;;10.54;100.00;100902.66;10391835;28;20056;-75
2023/04/28 18:31:26;;;;;;;54.72;35.85;;;;;;;10.50;100.00;100893.28;10392667;28;20056;-75
2023/04/28 18:36:26;;;;;;;62.15;37.00;;;;;;;10.55;100.00;100909.84;10392903;28;20037;-76
2023/04/28 18:41:27;;;;;;;64.03;37.83;;;;;;;10.57;100.00;100924.19;10375315;28;20478;-76
2023/04/28 18:46:28;;;;;;;62.30;38.40;;;;;;;10.53;100.00;100920.28;10393249;28;20041;-76
2023/04/28 18:51:28;;;;;;;65.65;41.22;;;;;;;10.41;100.00;100925.06;10360705;28;20076;-76
2023/04/28 18:56:29;;;;;;;75.95;45.55;;;;;;;10.33;100.00;100925.47;10377126;28;20036;-76
2023/04/28 19:01:29;;;;;;;77.40;46.75;;;;;;;10.24;100.00;100934.13;10393486;28;20033;-75
2023/04/28 19:06:30;;;;;;;82.03;48.25;;;;;;;10.11;100.00;100931.72;10392282;28;20096;-74
2023/04/28 19:11:30;;;;;;;83.35;48.15;;;;;;;10.18;100.00;100962.63;10391041;28;20041;-74
2023/04/28 19:16:31;;;;;;;75.97;44.60;;;;;;;10.04;100.00;100970.38;10376342;28;20115;-74
2023/04/28 19:21:39;;;;;;;77.80;42.35;;;;;;;9.93;100.00;100973.22;10391937;28;20080;-74
2023/04/28 19:26:40;;;;;;;67.20;41.88;;;;;;;9.94;100.00;100980.38;10409696;28;20072;-74
2023/04/28 19:31:40;;;;;;;67.82;43.42;;;;;;;9.92;100.00;100994.34;10393045;28;20041;-74
2023/04/28 19:36:41;;;;;;;76.65;44.30;;;;;;;9.86;100.00;101004.44;10359735;28;20068;-75
2023/04/28 19:41:41;;;;;;;72.63;45.67;;;;;;;9.86;100.00;101017.34;10363449;28;20037;-75
2023/04/28 19:46:42;;;;;;;71.68;42.78;;;;;;;9.69;100.00;101011.81;10381804;28;20042;-76
2023/04/28 19:51:42;;;;;;;78.57;46.33;;;;;;;9.69;100.00;101033.78;10362762;28;20243;-76
2023/04/28 19:56:43;;;;;;;72.55;44.35;;;;;;;9.63;100.00;101032.88;10361882;28;20034;-77
2023/04/28 20:01:44;;;;;;;71.00;44.28;;;;;;;9.20;100.00;100981.13;10414278;28;20553;-73
2023/04/28 20:06:45;;;;;;;68.38;41.40;;;;;;;9.59;100.00;101039.94;10366611;28;20045;-75
2023/04/28 20:11:45;;;;;;;65.68;41.05;;;;;;;9.54;100.00;101052.75;10363018;28;20057;-75
2023/04/28 20:16:47;;;;;;;68.00;41.42;;;;;;;9.36;100.00;101035.31;10395918;28;20072;-75
2023/04/28 20:21:47;;;;;;;70.45;42.22;;;;;;;9.46;100.00;101065.75;10367028;28;20029;-75
2023/04/28 20:26:49;;;;;;;71.57;44.40;;;;;;;9.44;100.00;101073.41;10397737;28;20038;-75
2023/04/28 20:31:49;;;;;;;69.85;42.00;;;;;;;9.35;100.00;101066.63;10364079;28;20042;-76
2023/04/28 20:36:51;;;;;;;73.88;45.13;;;;;;;9.37;100.00;101066.41;10379713;28;20034;-75
2023/04/28 20:41:52;;;;;;;67.68;42.03;;;;;;;9.41;100.00;101076.66;10380349;28;20052;-75
2023/04/28 20:46:52;;;;;;;73.68;45.70;;;;;;;9.32;100.00;101067.09;10362563;28;20133;-76
2023/04/28 20:51:53;;;;;;;78.13;45.58;;;;;;;9.39;100.00;101089.81;10362966;28;20080;-77
2023/04/28 20:56:53;;;;;;;80.00;44.92;;;;;;;9.33;100.00;101077.03;10363812;28;20559;-75
2023/04/28 21:01:54;;;;;;;80.30;48.15;;;;;;;9.20;100.00;101075.38;10378990;28;20041;-72
2023/04/28 21:06:54;;;;;;;82.38;49.03;;;;;;;9.26;100.00;101098.28;10362060;28;21182;-75
2023/04/28 21:11:55;;;;;;;86.22;48.70;;;;;;;9.24;100.00;101103.19;10361629;28;20034;-75
2023/04/28 21:16:55;;;;;;;92.15;51.63;;;;;;;8.83;100.00;101036.34;10364302;28;20045;-76
2023/04/28 21:21:56;;;;;;;86.88;51.40;;;;;;;9.23;100.00;101113.34;10359075;28;20060;-75
2023/04/28 21:26:58;;;;;;;89.85;50.05;;;;;;;9.17;100.00;101125.28;10406303;28;20034;-76
2023/04/28 21:32:01;;;;;;;90.63;50.55;;;;;;;8.97;100.00;101100.94;10380401;28;20047;-77
2023/04/28 21:37:02;;;;;;;89.03;51.55;;;;;;;9.07;100.00;101117.66;10377264;28;20490;-76
2023/04/28 21:42:03;;;;;;;88.97;51.58;;;;;;;8.68;100.00;101073.34;10361568;28;20136;-76
2023/04/28 21:47:05;;;;;;;99.40;53.65;;;;;;;9.04;100.00;101136.53;10360997;28;20045;-76
2023/04/28 21:52:07;;;;;;;98.35;53.35;;;;;;;9.04;100.00;101142.84;10362661;28;20124;-76
2023/04/28 21:57:07;;;;;;;95.95;52.22;;;;;;;9.00;100.00;101141.66;10371887;28;20419;-76
2023/04/28 22:02:08;;;;;;;102.82;53.95;;;;;;;9.00;100.00;101158.13;10376487;28;20072;-75
2023/04/28 22:07:09;;;;;;;99.70;52.28;;;;;;;8.92;100.00;101150.22;10376565;28;20037;-75
2023/04/28 22:12:09;;;;;;;102.55;53.50;;;;;;;8.85;100.00;101155.00;10376757;28;20037;-74
2023/04/28 22:17:10;;;;;;;97.85;53.30;;;;;;;8.80;100.00;101157.63;10391791;28;20033;-76
2023/04/28 22:22:11;;;;;;;118.20;56.53;;;;;;;8.87;100.00;101180.31;10376369;28;20049;-76
2023/04/28 22:27:11;;;;;;;95.25;51.55;;;;;;;8.80;100.00;101188.63;10360915;28;20045;-74
2023/04/28 22:32:12;;;;;;;90.47;50.58;;;;;;;8.69;100.00;101184.78;10349722;28;20041;-75